メインページ
METAR-TAF:

METAR-TAF

空港 :

イスタンブル-アタテュルク, トルコ

アタテュルク国際空港

緯度: 40-58N, 経度: 028-49E, 海抜: 48m

現時点の気象観測

当レポートは37分前の23:20(UTC)に作成
北/北東の風 10kt、から東/北東の間で変化する
気温 6°C
湿度 81%
気圧 1008 hPa
視程: 7000m
高度1100ftの雲は散在している
高度2600ftの曇り
弱いにわか雨

METAR: LTBA 242320Z 03010KT 350V060 7000 -SHRA SCT011 OVC026 06/03 Q1008 NOSIG RMK RWY17L 02013KT RWY05 01014KT 330V030 RWY23 03013KT

時間: 02:57 (23:57 UTC)

予報

当レポートは1時間17分前の22:40(UTC)に作成
予報は25日の 00時(UTC)から 26日の 06時(UTC)まで有効
北/北東の風 13kt
視程: 7000m
高度1500ftの雲は散在している
高度3000ftの千切れ雲あり
弱いにわか雨
確率 30% :
25日の 03時(UTC)から 25日の 06時(UTC)まで一時的に
の風 15kt、最大27ktの突風を伴う
視程: 4000m
高度2000ftの雲はほとんどない, 積乱雲.
高度2500ftの千切れ雲あり
にわか雨

TAF: LTBA 242240Z 2500/2606 02013KT 7000 -SHRA SCT015 BKN030 PROB30 TEMPO 2503/2506 01015G27KT 4000 SHRA FEW020CB BKN025

4,000以上の空港の気象観測と天気予報(METAR報とTAF報)

利用可能な観測所は地図上に黄色い丸と赤い丸で示す。

丸の上にカーソルを重ねると観測所名を参照できる。

次にクリックすると気象観測と天気予報を参照できる。

マップの切り替え:黒色「×」印の緑ボタンをクリックして拡大、「-」印の緑ボタンをクリックして縮小、緑色の三角印をクリックして隣りの地図に切り替え


METAR-TAF: